createdAt,value
2022-09-10T00:10:21.056Z,26.33
2022-09-10T00:17:27.378Z,26.18
2022-09-10T00:20:17.996Z,26.06
2022-09-10T00:22:53.277Z,26.00
2022-09-10T00:25:44.396Z,25.94
2022-09-10T00:28:21.308Z,25.83
2022-09-10T00:30:57.739Z,25.69
2022-09-10T00:33:51.023Z,25.56
2022-09-10T00:36:28.559Z,25.43
2022-09-10T00:54:26.743Z,24.79
2022-09-10T00:57:22.171Z,24.70
2022-09-10T01:10:53.023Z,24.39
2022-09-10T01:25:56.267Z,23.76
2022-09-10T01:51:48.316Z,23.73
2022-09-10T01:58:57.562Z,23.67
2022-09-10T02:05:55.250Z,23.41
2022-09-10T02:09:48.442Z,23.23
2022-09-10T02:16:53.384Z,23.07
2022-09-10T02:19:55.302Z,23.03
2022-09-10T02:23:47.673Z,23.00
2022-09-10T02:39:15.835Z,22.52
2022-09-10T02:49:12.899Z,22.16
2022-09-10T03:03:20.823Z,21.74
2022-09-10T03:14:21.142Z,21.36
2022-09-10T03:23:31.728Z,21.10
2022-09-10T03:39:21.661Z,20.86
2022-09-10T03:41:55.995Z,20.80
2022-09-10T03:45:37.538Z,20.78
2022-09-10T03:55:23.386Z,20.69
2022-09-10T04:04:19.721Z,20.54
2022-09-10T04:07:16.237Z,20.50
2022-09-10T04:10:20.302Z,20.41
2022-09-10T04:13:37.654Z,20.34
2022-09-10T04:17:08.259Z,20.34
2022-09-10T04:20:12.113Z,20.35
2022-09-10T04:22:45.521Z,20.37
2022-09-10T04:25:25.754Z,20.37
2022-09-10T04:28:12.907Z,20.36
2022-09-10T04:31:20.207Z,20.34
2022-09-10T04:34:19.873Z,20.35
2022-09-10T04:36:53.146Z,20.32
2022-09-10T04:43:19.735Z,20.33
2022-09-10T04:46:25.280Z,20.32
2022-09-10T04:53:45.271Z,20.25
2022-09-10T04:59:41.677Z,20.20
2022-09-10T05:06:22.993Z,20.20
2022-09-10T05:09:38.972Z,20.22
2022-09-10T05:19:42.407Z,20.22
2022-09-10T05:22:48.069Z,20.15
2022-09-10T05:25:41.658Z,20.18
2022-09-10T05:28:19.402Z,20.20
2022-09-10T05:34:47.040Z,20.12
2022-09-10T05:37:43.260Z,20.10
2022-09-10T05:40:45.304Z,20.07
2022-09-10T05:43:46.561Z,20.04
2022-09-10T05:46:38.860Z,20.01
2022-09-10T05:49:09.639Z,19.95
2022-09-10T05:51:37.987Z,19.96
2022-09-10T05:54:06.675Z,19.97
2022-09-10T05:56:37.776Z,20.00
2022-09-10T06:02:34.817Z,19.99
2022-09-10T06:05:35.303Z,19.94
2022-09-10T06:11:34.263Z,19.97
2022-09-10T06:14:38.389Z,19.97
2022-09-10T06:20:10.730Z,20.01
2022-09-10T06:23:03.438Z,19.97
2022-09-10T06:25:49.398Z,19.94
2022-09-10T06:41:09.221Z,19.97
2022-09-10T06:47:39.433Z,20.10
2022-09-10T06:57:10.894Z,20.40
2022-09-10T07:00:12.404Z,20.57
2022-09-10T07:06:09.432Z,20.59
2022-09-10T07:09:31.776Z,20.46
2022-09-10T07:13:01.067Z,20.33
2022-09-10T07:16:02.865Z,20.16
2022-09-10T07:28:14.240Z,20.06
2022-09-10T07:31:01.360Z,20.10
2022-09-10T07:36:48.686Z,20.22
2022-09-10T07:42:35.685Z,20.21
2022-09-10T07:48:08.194Z,20.20
2022-09-10T07:51:01.932Z,20.17
2022-09-10T07:53:32.789Z,20.15
2022-09-10T07:56:11.518Z,20.14
2022-09-10T07:58:46.171Z,20.14
2022-09-10T08:04:35.892Z,20.16
2022-09-10T08:14:35.262Z,20.61
2022-09-10T08:17:10.105Z,20.47
2022-09-10T08:23:30.262Z,20.32
2022-09-10T08:28:11.640Z,20.14
2022-09-10T08:29:34.191Z,20.01
2022-09-10T08:32:34.896Z,19.91
2022-09-10T08:35:28.474Z,19.83
2022-09-10T08:38:33.605Z,19.79
2022-09-10T08:41:32.038Z,19.73
2022-09-10T08:44:28.809Z,19.66
2022-09-10T09:01:56.298Z,19.72
2022-09-10T09:04:53.751Z,19.61
2022-09-10T09:11:29.476Z,19.59
2022-09-10T09:14:34.641Z,19.59
2022-09-10T09:17:36.607Z,19.64
2022-09-10T09:26:40.222Z,19.73
2022-09-10T09:29:30.143Z,19.66
2022-09-10T09:32:30.605Z,19.61
2022-09-10T09:35:27.263Z,19.61
2022-09-10T09:38:58.186Z,19.61
2022-09-10T09:42:28.474Z,19.62
2022-09-10T09:45:28.163Z,19.65
2022-09-10T09:48:25.617Z,19.66
2022-09-10T09:59:47.492Z,19.53
2022-09-10T10:02:36.414Z,19.51
2022-09-10T10:14:55.184Z,19.38
2022-09-10T10:18:01.650Z,19.38
2022-09-10T10:24:55.134Z,19.34
2022-09-10T10:27:59.065Z,19.34
2022-09-10T10:30:55.279Z,19.37
2022-09-10T10:37:50.173Z,19.34
2022-09-10T10:41:01.633Z,19.30
2022-09-10T10:43:51.490Z,19.32
2022-09-10T10:46:47.334Z,19.29
2022-09-10T10:49:49.382Z,19.29
2022-09-10T10:52:29.807Z,19.24
2022-09-10T10:55:22.474Z,19.21
2022-09-10T10:58:26.441Z,19.21
2022-09-10T11:01:25.240Z,19.16
2022-09-10T11:04:01.329Z,19.12
2022-09-10T11:06:54.740Z,19.14
2022-09-10T11:09:39.837Z,19.14
2022-09-10T11:12:17.711Z,19.13
2022-09-10T11:15:02.310Z,19.18
2022-09-10T11:18:01.159Z,19.22
2022-09-10T11:20:38.753Z,19.23
2022-09-10T11:23:19.265Z,19.25
2022-09-10T11:26:22.043Z,19.24
2022-09-10T11:29:00.425Z,19.25
2022-09-10T11:31:41.443Z,19.27
2022-09-10T11:37:52.935Z,19.38
2022-09-10T11:41:21.130Z,19.33
2022-09-10T11:49:47.725Z,19.20
2022-09-10T12:02:18.181Z,19.17
2022-09-10T12:02:43.877Z,19.19
2022-09-10T12:11:44.427Z,19.20
2022-09-10T12:14:22.951Z,19.16
2022-09-10T12:27:23.109Z,19.30
2022-09-10T12:37:32.711Z,19.11
2022-09-10T12:38:42.413Z,19.20
2022-09-10T12:41:17.614Z,19.10
2022-09-10T12:46:44.932Z,19.08
2022-09-10T12:49:15.304Z,19.12
2022-09-10T12:52:15.851Z,19.22
2022-09-10T12:55:22.220Z,19.22
2022-09-10T12:58:42.053Z,19.33
2022-09-10T13:05:43.609Z,19.29
2022-09-10T13:08:34.941Z,19.21
2022-09-10T13:11:04.213Z,19.22
2022-09-10T13:14:14.264Z,19.32
2022-09-10T13:16:44.162Z,19.31
2022-09-10T13:19:43.841Z,19.43
2022-09-10T13:22:33.621Z,19.52
2022-09-10T13:25:33.773Z,19.51
2022-09-10T13:28:03.214Z,19.42
2022-09-10T13:30:35.255Z,19.36
2022-09-10T13:36:09.632Z,19.36
2022-09-10T13:39:03.475Z,19.28
2022-09-10T13:41:51.909Z,19.20
2022-09-10T13:44:26.554Z,19.19
2022-09-10T13:46:59.450Z,19.13
2022-09-10T13:49:47.048Z,19.06
2022-09-10T13:52:20.781Z,19.08
2022-09-10T13:54:58.274Z,19.09
2022-09-10T13:57:31.453Z,19.07
2022-09-10T14:00:09.678Z,18.94
2022-09-10T14:02:56.626Z,18.82
2022-09-10T14:05:29.336Z,18.74
2022-09-10T14:08:03.046Z,18.70
2022-09-10T14:10:49.484Z,18.64
2022-09-10T14:13:39.900Z,18.54
2022-09-10T14:16:13.149Z,18.45
2022-09-10T14:18:51.383Z,18.41
2022-09-10T14:21:27.943Z,18.39
2022-09-10T14:23:59.045Z,18.33
2022-09-10T14:26:30.046Z,18.21
2022-09-10T14:29:26.129Z,18.17
2022-09-10T14:40:08.647Z,18.10
2022-09-10T14:42:46.939Z,18.14
2022-09-10T14:46:04.286Z,18.14
2022-09-10T14:49:05.578Z,18.13
2022-09-10T14:51:45.653Z,18.16
2022-09-10T14:54:15.463Z,18.23
2022-09-10T14:56:47.104Z,18.28
2022-09-10T14:59:29.409Z,18.34
2022-09-10T15:06:06.269Z,18.56
2022-09-10T15:12:13.241Z,18.68
2022-09-10T15:15:09.373Z,18.71
2022-09-10T15:20:35.002Z,18.81
2022-09-10T15:23:07.787Z,18.88
2022-09-10T15:25:38.350Z,18.92
2022-09-10T15:28:08.443Z,18.96
2022-09-10T15:30:40.511Z,18.97
2022-09-10T15:33:13.165Z,18.93
2022-09-10T15:35:44.392Z,18.88
2022-09-10T15:38:28.901Z,18.84
2022-09-10T15:41:12.653Z,18.84
2022-09-10T15:43:46.818Z,18.84
2022-09-10T15:46:17.393Z,18.82
2022-09-10T15:48:56.504Z,18.88
2022-09-10T15:51:33.405Z,18.92
2022-09-10T15:54:08.216Z,18.96
2022-09-10T15:56:37.609Z,19.03
2022-09-10T16:02:07.983Z,19.08
2022-09-10T16:04:38.526Z,19.13
2022-09-10T16:07:38.507Z,19.11
2022-09-10T16:16:37.345Z,18.80
2022-09-10T16:19:35.622Z,18.77
2022-09-10T16:25:42.127Z,18.76
2022-09-10T16:29:01.468Z,18.75
2022-09-10T17:27:36.705Z,19.14
2022-09-10T17:30:06.711Z,19.21
2022-09-10T17:32:35.380Z,19.25
2022-09-10T17:35:03.721Z,19.27
2022-09-10T17:37:33.366Z,19.28
2022-09-10T17:40:01.627Z,19.33
2022-09-10T17:42:29.958Z,19.34
2022-09-10T17:45:05.520Z,19.28
2022-09-10T17:47:37.416Z,19.21
2022-09-10T17:50:05.932Z,19.11
2022-09-10T17:52:36.857Z,19.09
2022-09-10T17:55:05.803Z,19.10
2022-09-10T17:57:45.195Z,19.13
2022-09-10T18:00:25.728Z,19.13
2022-09-10T18:03:02.728Z,19.09
2022-09-10T18:05:33.370Z,19.14
2022-09-10T18:08:01.820Z,19.28
2022-09-10T18:10:30.080Z,19.38
2022-09-10T18:13:00.427Z,19.47
2022-09-10T18:15:30.451Z,19.56
2022-09-10T18:18:02.369Z,19.69
2022-09-10T18:20:31.376Z,19.80
2022-09-10T18:23:01.533Z,19.90
2022-09-10T18:25:33.844Z,20.02
2022-09-10T18:28:05.109Z,20.17
